Time;durP1;ratioP1;P1;durP2;ratioP2;P2;SDS_P1;SDS_P2;PMS_P1;PMS_P2;Temp;Humidity;BMP_temperature;BMP_pressure;BME280_temperature;BME280_humidity;BME280_pressure;Samples;Min_cycle;Max_cycle;Signal;HPM_P1;HPM_P2
2022/08/04 00:00:15;;;;;;;;;;;28.50;45.30;;;;;;5023226;28;19956;-68
2022/08/04 00:02:47;;;;;;;;;;;28.50;45.40;;;;;;5024790;28;20543;-68
2022/08/04 00:05:19;;;;;;;;;;;28.50;45.50;;;;;;5034521;28;19937;-68
2022/08/04 00:07:48;;;;;;;;;;;28.40;45.40;;;;;;5025243;28;19925;-70
2022/08/04 00:10:17;;;;;;;;;;;28.40;45.50;;;;;;5038348;28;20305;-68
2022/08/04 00:12:46;;;;;;;;;;;28.30;45.50;;;;;;5045976;28;20382;-69
2022/08/04 00:15:15;;;;;;;;;;;28.30;45.60;;;;;;5025334;28;19929;-68
2022/08/04 00:17:44;;;;;;;;;;;28.30;45.70;;;;;;5025247;28;19925;-68
2022/08/04 00:20:12;;;;;;;;;;;28.20;45.70;;;;;;5025617;28;20441;-69
2022/08/04 00:22:39;;;;;;;;;;;28.20;45.80;;;;;;5029338;28;19933;-68
2022/08/04 00:25:06;;;;;;;;;;;28.20;45.80;;;;;;5038321;28;19928;-69
2022/08/04 00:27:33;;;;;;;;;;;28.10;45.90;;;;;;5043436;28;20392;-66
2022/08/04 00:29:59;;;;;;;;;;;28.10;45.90;;;;;;5019304;28;20381;-67
2022/08/04 00:32:27;;;;;;;;;;;28.10;45.90;;;;;;5018453;28;19952;-67
2022/08/04 00:34:54;;;;;;;;;;;28.00;46.00;;;;;;5024934;28;19924;-68
2022/08/04 00:37:21;;;;;;;;;;;28.00;46.00;;;;;;5029862;28;19925;-71
2022/08/04 00:39:48;;;;;;;;;;;27.90;46.00;;;;;;5032949;28;19925;-67
2022/08/04 00:42:34;;;;;;;;;;;27.90;46.10;;;;;;5033719;28;19933;-68
2022/08/04 00:45:09;;;;;;;;;;;27.90;46.20;;;;;;5019002;28;19973;-68
2022/08/04 00:47:44;;;;;;;;;;;27.80;46.30;;;;;;5019827;28;19944;-68
2022/08/04 00:50:11;;;;;;;;;;;27.80;46.40;;;;;;5020956;28;20503;-69
2022/08/04 00:52:50;;;;;;;;;;;27.80;46.30;;;;;;5022543;28;19929;-67
2022/08/04 00:55:22;;;;;;;;;;;27.80;46.40;;;;;;5024005;28;19931;-67
2022/08/04 00:58:04;;;;;;;;;;;27.70;46.50;;;;;;5036588;28;19936;-67
2022/08/04 01:00:32;;;;;;;;;;;27.60;46.50;;;;;;5004453;28;20405;-68
2022/08/04 01:03:08;;;;;;;;;;;27.60;46.60;;;;;;5022449;28;19925;-68
2022/08/04 01:05:38;;;;;;;;;;;27.60;46.70;;;;;;5029139;28;19929;-67
2022/08/04 01:08:18;;;;;;;;;;;27.50;46.70;;;;;;5018831;28;19929;-69
2022/08/04 01:10:51;;;;;;;;;;;27.50;46.80;;;;;;5035119;28;19929;-68
2022/08/04 01:13:26;;;;;;;;;;;27.50;46.90;;;;;;5031177;28;19925;-67
2022/08/04 01:15:54;;;;;;;;;;;27.40;46.90;;;;;;5019721;28;19932;-66
2022/08/04 01:18:27;;;;;;;;;;;27.40;47.00;;;;;;5021077;28;20413;-69
2022/08/04 01:20:59;;;;;;;;;;;27.40;47.10;;;;;;5027977;28;19948;-70
2022/08/04 01:23:35;;;;;;;;;;;27.40;47.20;;;;;;5033787;28;19929;-68
2022/08/04 01:26:09;;;;;;;;;;;27.30;47.20;;;;;;5031397;28;19928;-67
2022/08/04 01:28:41;;;;;;;;;;;27.30;47.30;;;;;;5028152;28;19933;-68
2022/08/04 01:31:15;;;;;;;;;;;27.30;47.50;;;;;;5022555;28;19925;-66
2022/08/04 01:33:42;;;;;;;;;;;27.20;47.50;;;;;;5021934;28;19956;-69
2022/08/04 01:36:09;;;;;;;;;;;27.20;47.50;;;;;;5026900;28;19948;-67
2022/08/04 01:38:37;;;;;;;;;;;27.20;47.70;;;;;;5031120;28;19929;-68
2022/08/04 01:41:04;;;;;;;;;;;27.20;47.70;;;;;;5034366;28;20784;-68
2022/08/04 01:43:32;;;;;;;;;;;27.10;47.70;;;;;;5021038;28;19936;-68
2022/08/04 01:46:00;;;;;;;;;;;27.10;47.90;;;;;;5017312;28;20381;-69
2022/08/04 01:48:28;;;;;;;;;;;27.00;47.80;;;;;;5036450;28;19925;-67
2022/08/04 01:50:57;;;;;;;;;;;27.00;48.00;;;;;;5024740;28;19936;-69
2022/08/04 01:53:23;;;;;;;;;;;27.00;48.10;;;;;;5020418;28;19929;-69
2022/08/04 01:55:52;;;;;;;;;;;26.90;48.10;;;;;;5022324;28;19925;-68
2022/08/04 01:58:19;;;;;;;;;;;26.90;48.10;;;;;;5029186;28;20380;-67
2022/08/04 02:00:50;;;;;;;;;;;26.90;48.20;;;;;;5016396;28;19925;-69
2022/08/04 02:03:16;;;;;;;;;;;26.90;48.40;;;;;;5026740;28;20380;-67
2022/08/04 02:05:47;;;;;;;;;;;26.80;48.50;;;;;;5033840;28;19928;-68
2022/08/04 02:08:19;;;;;;;;;;;26.80;48.50;;;;;;5023111;28;20003;-69
2022/08/04 02:10:50;;;;;;;;;;;26.80;48.60;;;;;;5032067;28;20342;-67
2022/08/04 02:13:21;;;;;;;;;;;26.80;48.70;;;;;;5030691;28;19920;-67
2022/08/04 02:15:53;;;;;;;;;;;26.80;48.70;;;;;;5022146;28;19925;-68
2022/08/04 02:18:22;;;;;;;;;;;26.70;48.90;;;;;;5019667;28;20381;-69
2022/08/04 02:20:55;;;;;;;;;;;26.70;49.00;;;;;;5028179;28;19933;-68
2022/08/04 02:23:25;;;;;;;;;;;26.60;49.00;;;;;;5032960;28;20009;-69
2022/08/04 02:25:55;;;;;;;;;;;26.60;49.10;;;;;;5041945;28;19929;-68
2022/08/04 02:28:25;;;;;;;;;;;26.60;49.10;;;;;;5027923;28;19926;-67
2022/08/04 02:30:57;;;;;;;;;;;26.50;49.10;;;;;;5018293;28;19929;-68
2022/08/04 02:33:26;;;;;;;;;;;26.50;49.30;;;;;;5016133;28;19937;-70
2022/08/04 02:35:58;;;;;;;;;;;26.50;49.40;;;;;;5018616;28;19934;-67
2022/08/04 02:38:32;;;;;;;;;;;26.50;49.50;;;;;;5027459;28;19925;-66
2022/08/04 02:41:00;;;;;;;;;;;26.40;49.50;;;;;;5029907;28;20339;-68
2022/08/04 02:43:27;;;;;;;;;;;26.40;49.60;;;;;;5019067;28;20737;-68
2022/08/04 02:45:55;;;;;;;;;;;26.40;49.70;;;;;;5022968;28;19934;-67
2022/08/04 02:48:23;;;;;;;;;;;26.30;49.70;;;;;;5037690;28;19928;-68
2022/08/04 02:50:50;;;;;;;;;;;26.40;49.80;;;;;;5027092;28;19932;-69
2022/08/04 02:53:21;;;;;;;;;;;26.30;50.00;;;;;;5019235;28;19925;-67
2022/08/04 02:55:48;;;;;;;;;;;26.30;50.00;;;;;;5024771;28;20004;-67
2022/08/04 02:58:16;;;;;;;;;;;26.20;50.10;;;;;;5028567;28;19926;-67
2022/08/04 03:00:44;;;;;;;;;;;26.20;50.10;;;;;;5017667;28;19934;-67
2022/08/04 03:03:16;;;;;;;;;;;26.20;50.20;;;;;;5032298;28;19929;-69
2022/08/04 03:05:52;;;;;;;;;;;26.20;50.30;;;;;;5021321;28;19972;-67
2022/08/04 03:08:29;;;;;;;;;;;26.10;50.20;;;;;;5017717;28;20308;-67
2022/08/04 03:11:14;;;;;;;;;;;26.10;50.20;;;;;;5032546;28;19929;-68
2022/08/04 03:13:58;;;;;;;;;;;26.10;50.40;;;;;;5036430;28;19937;-68
2022/08/04 03:16:45;;;;;;;;;;;26.10;50.30;;;;;;5020047;28;19932;-69
2022/08/04 03:19:30;;;;;;;;;;;26.00;50.40;;;;;;5012496;28;19929;-68
2022/08/04 03:22:11;;;;;;;;;;;26.00;50.60;;;;;;5028265;28;20328;-66
2022/08/04 03:24:57;;;;;;;;;;;26.00;50.60;;;;;;5034855;28;19971;-68
2022/08/04 03:27:37;;;;;;;;;;;25.90;50.60;;;;;;5042170;28;19925;-68
2022/08/04 03:30:08;;;;;;;;;;;25.90;50.60;;;;;;5016299;28;19937;-67
2022/08/04 03:32:58;;;;;;;;;;;25.90;50.80;;;;;;5017857;28;19936;-68
2022/08/04 03:35:44;;;;;;;;;;;25.90;50.80;;;;;;5018360;28;20011;-68
2022/08/04 03:38:25;;;;;;;;;;;25.80;50.70;;;;;;5033278;28;19929;-70
2022/08/04 03:41:02;;;;;;;;;;;25.80;50.80;;;;;;5032065;28;19947;-69
2022/08/04 03:43:43;;;;;;;;;;;25.80;50.80;;;;;;5016328;28;20402;-67
2022/08/04 03:46:25;;;;;;;;;;;25.80;50.90;;;;;;5016570;28;19933;-68
2022/08/04 03:49:10;;;;;;;;;;;25.70;51.20;;;;;;5029356;28;19929;-67
2022/08/04 03:54:33;;;;;;;;;;;25.70;51.10;;;;;;5015702;28;19932;-67
2022/08/04 03:57:17;;;;;;;;;;;25.70;51.20;;;;;;5037722;28;19932;-68
2022/08/04 03:59:54;;;;;;;;;;;25.60;51.30;;;;;;5021694;28;19929;-68
2022/08/04 04:02:39;;;;;;;;;;;25.60;51.40;;;;;;5019344;28;19936;-68
2022/08/04 04:05:24;;;;;;;;;;;25.60;51.30;;;;;;5031081;28;19925;-70
2022/08/04 04:08:10;;;;;;;;;;;25.50;51.30;;;;;;5020362;28;19932;-67
2022/08/04 04:10:58;;;;;;;;;;;25.50;51.30;;;;;;5033829;28;19933;-67
2022/08/04 04:13:31;;;;;;;;;;;25.50;51.40;;;;;;5038332;28;19943;-68
2022/08/04 04:16:09;;;;;;;;;;;25.50;51.50;;;;;;5021291;28;20064;-70
2022/08/04 04:18:49;;;;;;;;;;;25.50;51.60;;;;;;5017497;28;20392;-71
2022/08/04 04:21:27;;;;;;;;;;;25.50;51.40;;;;;;5027637;28;19925;-72
2022/08/04 04:24:02;;;;;;;;;;;25.40;51.40;;;;;;5033863;28;19964;-71
2022/08/04 04:26:34;;;;;;;;;;;25.40;51.60;;;;;;5040639;28;19933;-71
2022/08/04 04:29:14;;;;;;;;;;;25.30;51.50;;;;;;5029865;28;19932;-70
2022/08/04 04:31:52;;;;;;;;;;;25.30;51.70;;;;;;5015447;28;20401;-72
2022/08/04 04:34:23;;;;;;;;;;;25.30;51.80;;;;;;5021792;28;19932;-69
2022/08/04 04:36:58;;;;;;;;;;;25.30;51.80;;;;;;5031053;28;19932;-70
2022/08/04 04:39:29;;;;;;;;;;;25.30;51.80;;;;;;5030933;28;20453;-70
2022/08/04 04:42:13;;;;;;;;;;;25.30;51.80;;;;;;5032524;28;19933;-69
2022/08/04 04:44:57;;;;;;;;;;;25.20;51.80;;;;;;5025819;28;19926;-70
2022/08/04 04:47:30;;;;;;;;;;;25.20;51.80;;;;;;5020739;28;19930;-71
2022/08/04 04:49:59;;;;;;;;;;;25.20;52.00;;;;;;5023493;28;19929;-70
2022/08/04 04:52:28;;;;;;;;;;;25.20;52.10;;;;;;5033025;28;20405;-69
2022/08/04 04:54:59;;;;;;;;;;;25.10;51.90;;;;;;5023047;28;19932;-70
2022/08/04 04:57:29;;;;;;;;;;;25.10;51.90;;;;;;5024815;28;20530;-69
2022/08/04 04:59:58;;;;;;;;;;;25.10;52.10;;;;;;5015537;28;19933;-69
2022/08/04 05:02:37;;;;;;;;;;;25.10;52.10;;;;;;5022436;28;20389;-71
2022/08/04 05:05:12;;;;;;;;;;;25.10;52.10;;;;;;5038203;28;19936;-70
2022/08/04 05:08:01;;;;;;;;;;;25.00;52.10;;;;;;5018653;28;19925;-67
2022/08/04 05:10:34;;;;;;;;;;;25.00;52.20;;;;;;5028225;28;20024;-70
2022/08/04 05:13:11;;;;;;;;;;;25.00;52.20;;;;;;5047890;28;19936;-71
2022/08/04 05:15:42;;;;;;;;;;;25.00;52.20;;;;;;5025062;28;19932;-71
2022/08/04 05:18:13;;;;;;;;;;;25.00;52.40;;;;;;5017901;28;19933;-69
2022/08/04 05:20:41;;;;;;;;;;;24.90;52.50;;;;;;5012597;28;19929;-70
2022/08/04 05:23:10;;;;;;;;;;;24.90;52.60;;;;;;5032377;28;19929;-70
2022/08/04 05:25:40;;;;;;;;;;;24.90;52.70;;;;;;5042166;28;19929;-71
2022/08/04 05:28:12;;;;;;;;;;;24.90;52.70;;;;;;5035937;28;19940;-69
2022/08/04 05:30:47;;;;;;;;;;;24.90;52.80;;;;;;5016347;28;19945;-71
2022/08/04 05:33:15;;;;;;;;;;;24.90;52.90;;;;;;5017563;28;20012;-69
2022/08/04 05:35:43;;;;;;;;;;;24.90;53.00;;;;;;5022656;28;19929;-71
2022/08/04 05:38:11;;;;;;;;;;;24.80;53.10;;;;;;5027916;28;19932;-70
2022/08/04 05:40:39;;;;;;;;;;;24.80;53.00;;;;;;5033476;28;20277;-72
2022/08/04 05:43:06;;;;;;;;;;;24.80;53.10;;;;;;5018012;28;20400;-69
2022/08/04 05:45:34;;;;;;;;;;;24.80;53.10;;;;;;5020936;28;19971;-70
2022/08/04 05:48:02;;;;;;;;;;;24.80;53.10;;;;;;5026126;28;19928;-70
2022/08/04 05:50:29;;;;;;;;;;;24.80;53.10;;;;;;5022517;28;20493;-70
2022/08/04 05:52:57;;;;;;;;;;;24.80;53.10;;;;;;5019007;28;19925;-69
2022/08/04 05:55:24;;;;;;;;;;;24.80;53.00;;;;;;5022430;28;21070;-69
2022/08/04 05:57:51;;;;;;;;;;;24.80;52.90;;;;;;5027059;28;19945;-70
2022/08/04 06:00:17;;;;;;;;;;;24.80;52.90;;;;;;5020248;28;19925;-70
2022/08/04 06:02:46;;;;;;;;;;;24.80;52.90;;;;;;5017691;28;19934;-70
2022/08/04 06:05:14;;;;;;;;;;;24.80;52.90;;;;;;5035634;28;20279;-71
2022/08/04 06:07:41;;;;;;;;;;;24.80;52.90;;;;;;5013835;28;20408;-73
2022/08/04 06:10:08;;;;;;;;;;;24.80;52.90;;;;;;5036565;28;20008;-69
2022/08/04 06:12:37;;;;;;;;;;;24.90;52.90;;;;;;5040011;28;19928;-69
2022/08/04 06:15:04;;;;;;;;;;;24.80;52.90;;;;;;5025270;28;20076;-69
2022/08/04 06:17:35;;;;;;;;;;;24.80;52.90;;;;;;5016532;28;19933;-71
2022/08/04 06:20:03;;;;;;;;;;;24.90;52.90;;;;;;5029879;28;19932;-70
2022/08/04 06:22:33;;;;;;;;;;;24.90;53.00;;;;;;5029512;28;19930;-70
2022/08/04 06:25:00;;;;;;;;;;;24.80;52.90;;;;;;5034092;28;19925;-70
2022/08/04 06:27:28;;;;;;;;;;;24.90;53.00;;;;;;5039262;28;19933;-70
2022/08/04 06:29:57;;;;;;;;;;;24.90;53.00;;;;;;5017343;28;19925;-70
2022/08/04 06:32:26;;;;;;;;;;;24.90;53.10;;;;;;5015981;28;19929;-70
2022/08/04 06:34:54;;;;;;;;;;;24.90;53.10;;;;;;5019371;28;19925;-70
2022/08/04 06:37:21;;;;;;;;;;;24.90;53.10;;;;;;5025926;28;19944;-72
2022/08/04 06:39:49;;;;;;;;;;;24.90;53.10;;;;;;5024855;28;19930;-69
2022/08/04 06:42:16;;;;;;;;;;;24.90;53.10;;;;;;5025203;28;20404;-70
2022/08/04 06:44:44;;;;;;;;;;;24.90;53.10;;;;;;5017714;28;19925;-68
2022/08/04 06:47:11;;;;;;;;;;;24.90;53.00;;;;;;5025711;28;19932;-70
2022/08/04 06:49:38;;;;;;;;;;;24.90;53.00;;;;;;5034646;28;19929;-70
2022/08/04 06:52:05;;;;;;;;;;;24.90;53.00;;;;;;5016689;28;20629;-70
2022/08/04 06:54:32;;;;;;;;;;;25.00;53.00;;;;;;5029382;28;19974;-70
2022/08/04 06:57:01;;;;;;;;;;;24.90;53.00;;;;;;5035216;28;19944;-69
2022/08/04 06:59:28;;;;;;;;;;;25.00;53.00;;;;;;5019444;28;19933;-70
2022/08/04 07:01:55;;;;;;;;;;;25.00;52.90;;;;;;5016197;28;19932;-69
2022/08/04 07:04:22;;;;;;;;;;;25.00;52.80;;;;;;5022574;28;19944;-71
2022/08/04 07:06:48;;;;;;;;;;;25.00;52.70;;;;;;5030305;28;19925;-70
2022/08/04 07:09:15;;;;;;;;;;;25.10;52.80;;;;;;5029846;28;19948;-70
2022/08/04 07:11:41;;;;;;;;;;;25.10;52.70;;;;;;5037248;28;20302;-70
2022/08/04 07:14:09;;;;;;;;;;;25.10;52.70;;;;;;5039807;28;20392;-70
2022/08/04 07:16:36;;;;;;;;;;;25.10;52.60;;;;;;5019146;28;19926;-71
2022/08/04 07:19:03;;;;;;;;;;;25.10;52.70;;;;;;5021585;28;19933;-73
2022/08/04 07:21:30;;;;;;;;;;;25.20;52.70;;;;;;5026877;28;19925;-68
2022/08/04 07:23:56;;;;;;;;;;;25.20;52.50;;;;;;5038853;28;19929;-69
2022/08/04 07:26:26;;;;;;;;;;;25.20;52.50;;;;;;5040697;28;19931;-70
2022/08/04 07:28:53;;;;;;;;;;;25.30;52.40;;;;;;5021508;28;19930;-69
2022/08/04 07:31:22;;;;;;;;;;;25.30;52.40;;;;;;5016861;28;20377;-70
2022/08/04 07:33:50;;;;;;;;;;;25.30;52.20;;;;;;5027694;28;19971;-69
2022/08/04 07:36:16;;;;;;;;;;;25.30;52.20;;;;;;5022126;28;19936;-72
2022/08/04 07:38:43;;;;;;;;;;;25.40;52.20;;;;;;5035144;28;19933;-69
2022/08/04 07:41:09;;;;;;;;;;;25.40;52.20;;;;;;5032547;28;19932;-70
2022/08/04 07:43:36;;;;;;;;;;;25.40;52.10;;;;;;5019582;28;19937;-69
2022/08/04 07:46:03;;;;;;;;;;;25.40;51.90;;;;;;5020284;28;19964;-70
2022/08/04 07:48:31;;;;;;;;;;;25.50;51.90;;;;;;5026652;28;19933;-69
2022/08/04 07:50:58;;;;;;;;;;;25.50;51.90;;;;;;5025670;28;19926;-70
2022/08/04 07:53:26;;;;;;;;;;;25.50;51.80;;;;;;5022551;28;19929;-69
2022/08/04 07:55:52;;;;;;;;;;;25.60;51.90;;;;;;5040784;28;19925;-70
2022/08/04 07:58:19;;;;;;;;;;;25.60;51.80;;;;;;5031147;28;19926;-71
2022/08/04 08:00:47;;;;;;;;;;;25.60;51.70;;;;;;5021449;28;19926;-71
2022/08/04 08:03:13;;;;;;;;;;;25.70;51.60;;;;;;5030542;28;19925;-70
2022/08/04 08:05:41;;;;;;;;;;;25.70;51.60;;;;;;5035653;28;19933;-68
2022/08/04 08:08:08;;;;;;;;;;;25.80;51.60;;;;;;5019282;28;20274;-70
2022/08/04 08:10:34;;;;;;;;;;;25.80;51.50;;;;;;5037579;28;20554;-70
2022/08/04 08:13:01;;;;;;;;;;;25.80;51.50;;;;;;5049997;28;19983;-70
2022/08/04 08:15:28;;;;;;;;;;;25.80;51.50;;;;;;5023283;28;19948;-69
2022/08/04 08:17:54;;;;;;;;;;;25.90;51.50;;;;;;5025720;28;19936;-71
2022/08/04 08:20:21;;;;;;;;;;;25.90;51.40;;;;;;5034691;28;19931;-70
2022/08/04 08:22:49;;;;;;;;;;;26.00;51.40;;;;;;5038258;28;19929;-69
2022/08/04 08:25:15;;;;;;;;;;;26.00;51.30;;;;;;5030716;28;19933;-69
2022/08/04 08:27:42;;;;;;;;;;;26.10;51.20;;;;;;5034123;28;19932;-70
2022/08/04 08:30:09;;;;;;;;;;;26.10;51.20;;;;;;5025682;28;19929;-70
2022/08/04 08:32:35;;;;;;;;;;;26.10;51.10;;;;;;5018829;28;20590;-70
2022/08/04 08:35:02;;;;;;;;;;;26.20;51.10;;;;;;5023826;28;20290;-70
2022/08/04 08:37:32;;;;;;;;;;;26.20;51.00;;;;;;5027515;28;20388;-70
2022/08/04 08:40:04;;;;;;;;;;;26.20;51.00;;;;;;5022413;28;19936;-70
2022/08/04 08:42:45;;;;;;;;;;;26.30;51.00;;;;;;5026599;28;19925;-70
2022/08/04 08:45:30;;;;;;;;;;;26.30;50.90;;;;;;4981309;28;19936;-70
2022/08/04 08:48:06;;;;;;;;;;;26.40;50.90;;;;;;5024184;28;20507;-70
2022/08/04 08:50:49;;;;;;;;;;;26.40;50.70;;;;;;5030379;28;19940;-69
2022/08/04 08:53:31;;;;;;;;;;;26.50;50.70;;;;;;5021508;28;19933;-70
2022/08/04 08:56:08;;;;;;;;;;;26.50;50.70;;;;;;5025102;28;19921;-70
2022/08/04 08:58:41;;;;;;;;;;;26.60;50.60;;;;;;5017704;28;19945;-71
2022/08/04 09:01:12;;;;;;;;;;;26.60;50.50;;;;;;5016157;28;19921;-70
2022/08/04 09:03:46;;;;;;;;;;;26.70;50.40;;;;;;5023009;28;19922;-70
2022/08/04 09:06:30;;;;;;;;;;;26.70;50.30;;;;;;5019980;28;19943;-71
2022/08/04 09:09:04;;;;;;;;;;;26.80;50.20;;;;;;5010185;28;20015;-70
2022/08/04 09:11:37;;;;;;;;;;;26.80;50.00;;;;;;5041177;28;20685;-70
2022/08/04 09:14:07;;;;;;;;;;;26.90;50.00;;;;;;5030801;28;19977;-71
2022/08/04 09:16:36;;;;;;;;;;;26.90;49.90;;;;;;5018845;28;19929;-71
2022/08/04 09:19:06;;;;;;;;;;;27.00;49.80;;;;;;5020740;28;19930;-70
2022/08/04 09:21:37;;;;;;;;;;;27.00;49.70;;;;;;5030618;28;20412;-70
2022/08/04 09:24:06;;;;;;;;;;;27.10;49.60;;;;;;5041426;28;19951;-70
2022/08/04 09:26:39;;;;;;;;;;;27.10;49.40;;;;;;5039086;28;19932;-70
2022/08/04 09:29:08;;;;;;;;;;;27.20;49.30;;;;;;5020601;28;19931;-70
2022/08/04 09:31:35;;;;;;;;;;;27.30;49.10;;;;;;5029876;28;19963;-70
2022/08/04 09:34:08;;;;;;;;;;;27.30;49.00;;;;;;5020479;28;19935;-70
2022/08/04 09:36:37;;;;;;;;;;;27.40;49.00;;;;;;5018855;28;20016;-71
2022/08/04 09:39:08;;;;;;;;;;;27.40;48.80;;;;;;5034855;28;19936;-70
2022/08/04 09:41:41;;;;;;;;;;;27.50;48.70;;;;;;5030276;28;20321;-70
2022/08/04 09:44:15;;;;;;;;;;;27.60;48.60;;;;;;5023941;28;19930;-72
2022/08/04 09:46:45;;;;;;;;;;;27.70;48.40;;;;;;5014179;28;19929;-69
2022/08/04 09:49:14;;;;;;;;;;;27.70;48.20;;;;;;5023210;28;20420;-71
2022/08/04 09:51:49;;;;;;;;;;;27.80;48.10;;;;;;5037139;28;19933;-70
2022/08/04 09:54:19;;;;;;;;;;;27.90;48.00;;;;;;5026040;28;19929;-69
2022/08/04 09:56:53;;;;;;;;;;;27.90;47.70;;;;;;5037753;28;19932;-70
2022/08/04 09:59:22;;;;;;;;;;;28.00;47.60;;;;;;5017311;28;19936;-70
2022/08/04 10:01:51;;;;;;;;;;;28.10;47.50;;;;;;5020378;28;20110;-70
2022/08/04 10:04:18;;;;;;;;;;;28.10;47.40;;;;;;5036522;28;19925;-70
2022/08/04 10:07:04;;;;;;;;;;;28.20;47.30;;;;;;5023594;28;19940;-71
2022/08/04 10:09:34;;;;;;;;;;;28.30;47.10;;;;;;5027000;28;19928;-70
2022/08/04 10:12:08;;;;;;;;;;;28.40;47.10;;;;;;5036940;28;19933;-71
2022/08/04 10:14:38;;;;;;;;;;;28.50;46.80;;;;;;5026429;28;20322;-71
2022/08/04 10:17:09;;;;;;;;;;;28.50;46.80;;;;;;5019658;28;19984;-71
2022/08/04 10:19:37;;;;;;;;;;;28.60;46.70;;;;;;5023583;28;19933;-72
2022/08/04 10:22:08;;;;;;;;;;;28.70;46.50;;;;;;5025267;28;19925;-71
2022/08/04 10:24:39;;;;;;;;;;;28.80;46.40;;;;;;5039138;28;20281;-69
2022/08/04 10:27:10;;;;;;;;;;;28.90;46.20;;;;;;5041504;28;19967;-70
2022/08/04 10:29:41;;;;;;;;;;;28.90;46.00;;;;;;5030676;28;19976;-70
2022/08/04 10:32:11;;;;;;;;;;;29.00;45.70;;;;;;5018728;28;19933;-70
2022/08/04 10:34:41;;;;;;;;;;;29.10;45.60;;;;;;5015243;28;19921;-70
2022/08/04 10:37:16;;;;;;;;;;;29.20;45.70;;;;;;5016199;28;20352;-70
2022/08/04 10:40:35;;;;;;;;;;;29.20;45.60;;;;;;5022558;28;19925;-69
2022/08/04 10:42:36;;;;;;;;;;;29.30;45.40;;;;;;5024289;28;20315;-70
2022/08/04 10:45:08;;;;;;;;;;;29.40;45.30;;;;;;5018947;28;20381;-70
2022/08/04 10:47:37;;;;;;;;;;;29.50;44.90;;;;;;5024656;28;19929;-71
2022/08/04 10:50:06;;;;;;;;;;;29.60;44.90;;;;;;5024145;28;19929;-70
2022/08/04 10:52:34;;;;;;;;;;;29.60;44.70;;;;;;5017203;28;19930;-70
2022/08/04 10:55:05;;;;;;;;;;;29.70;44.50;;;;;;5036361;28;19925;-70
2022/08/04 10:57:35;;;;;;;;;;;29.80;44.40;;;;;;5031399;28;19933;-70
2022/08/04 11:00:04;;;;;;;;;;;29.90;44.20;;;;;;5017194;28;20031;-72
2022/08/04 11:02:36;;;;;;;;;;;29.90;44.10;;;;;;5019707;28;19980;-70
2022/08/04 11:05:10;;;;;;;;;;;30.00;44.10;;;;;;5036403;28;19960;-71
2022/08/04 11:07:38;;;;;;;;;;;30.10;44.00;;;;;;5021657;28;19937;-70
2022/08/04 11:10:06;;;;;;;;;;;30.20;43.80;;;;;;5039535;28;19925;-71
2022/08/04 11:12:35;;;;;;;;;;;30.30;43.60;;;;;;5035040;28;20312;-72
2022/08/04 11:15:04;;;;;;;;;;;30.30;43.40;;;;;;5025141;28;19934;-70
2022/08/04 11:17:34;;;;;;;;;;;30.40;43.30;;;;;;5019963;28;19941;-70
2022/08/04 11:20:03;;;;;;;;;;;30.40;43.30;;;;;;5025708;28;19940;-70
2022/08/04 11:22:30;;;;;;;;;;;30.50;42.70;;;;;;5042232;28;19929;-71
2022/08/04 11:25:03;;;;;;;;;;;30.60;42.20;;;;;;5038760;28;19925;-71
2022/08/04 11:27:35;;;;;;;;;;;30.70;42.60;;;;;;5042608;28;19940;-70
2022/08/04 11:30:05;;;;;;;;;;;30.80;43.10;;;;;;5019315;28;19934;-70
2022/08/04 11:32:35;;;;;;;;;;;30.80;42.40;;;;;;5019269;28;19930;-71
2022/08/04 11:35:05;;;;;;;;;;;30.90;42.10;;;;;;5015767;28;19944;-70
2022/08/04 11:37:36;;;;;;;;;;;30.90;41.80;;;;;;5026960;28;20427;-70
2022/08/04 11:40:06;;;;;;;;;;;31.00;41.50;;;;;;5030847;28;19924;-71
2022/08/04 11:42:37;;;;;;;;;;;31.10;41.70;;;;;;5033160;28;19929;-71
2022/08/04 11:45:07;;;;;;;;;;;31.20;41.70;;;;;;5026480;28;19937;-71
2022/08/04 11:47:37;;;;;;;;;;;31.20;41.50;;;;;;5022916;28;19925;-70
2022/08/04 11:50:07;;;;;;;;;;;31.30;41.20;;;;;;5039148;28;19982;-70
2022/08/04 11:52:35;;;;;;;;;;;31.40;41.80;;;;;;5036113;28;19933;-70
2022/08/04 11:55:03;;;;;;;;;;;31.40;41.10;;;;;;5038168;28;19939;-70
2022/08/04 11:57:30;;;;;;;;;;;31.50;41.10;;;;;;5026582;28;19964;-71
2022/08/04 11:59:57;;;;;;;;;;;31.60;40.60;;;;;;5020287;28;20300;-72
2022/08/04 12:02:41;;;;;;;;;;;31.70;40.60;;;;;;5028207;28;19924;-70
2022/08/04 12:05:09;;;;;;;;;;;31.70;40.50;;;;;;5037500;28;20476;-71
2022/08/04 12:07:42;;;;;;;;;;;31.80;40.40;;;;;;5027756;28;20008;-70
2022/08/04 12:10:18;;;;;;;;;;;31.80;40.10;;;;;;5039343;28;20301;-70
2022/08/04 12:12:49;;;;;;;;;;;31.90;39.90;;;;;;5044496;28;19936;-70
2022/08/04 12:15:20;;;;;;;;;;;32.00;39.90;;;;;;5018623;28;20297;-70
2022/08/04 12:17:49;;;;;;;;;;;32.00;39.90;;;;;;5018568;28;20348;-70
2022/08/04 12:20:20;;;;;;;;;;;32.10;39.50;;;;;;5035145;28;19925;-70
2022/08/04 12:22:49;;;;;;;;;;;32.20;38.80;;;;;;5032868;28;19964;-70
2022/08/04 12:25:17;;;;;;;;;;;32.20;38.80;;;;;;5038491;28;19932;-72
2022/08/04 12:27:46;;;;;;;;;;;32.30;39.10;;;;;;5030003;28;19929;-73
2022/08/04 12:30:13;;;;;;;;;;;32.30;38.60;;;;;;5019142;28;20036;-69
2022/08/04 12:32:42;;;;;;;;;;;32.40;38.70;;;;;;5028063;28;20377;-70
2022/08/04 12:35:13;;;;;;;;;;;32.40;37.70;;;;;;5018001;28;19925;-70
2022/08/04 12:37:46;;;;;;;;;;;32.50;38.40;;;;;;5022530;28;20482;-70
2022/08/04 12:40:16;;;;;;;;;;;32.50;38.40;;;;;;5029925;28;19932;-71
2022/08/04 12:42:46;;;;;;;;;;;32.60;38.50;;;;;;5030032;28;19947;-70
2022/08/04 12:45:13;;;;;;;;;;;32.70;38.30;;;;;;5019539;28;19932;-71
2022/08/04 12:47:41;;;;;;;;;;;32.70;38.10;;;;;;5027757;28;19925;-71
2022/08/04 12:50:08;;;;;;;;;;;32.80;37.50;;;;;;5027258;28;19930;-71
2022/08/04 12:52:41;;;;;;;;;;;32.80;37.40;;;;;;5025088;28;19933;-70
2022/08/04 12:55:10;;;;;;;;;;;32.90;37.40;;;;;;5036795;28;19925;-69
2022/08/04 12:57:37;;;;;;;;;;;33.00;37.60;;;;;;5033633;28;19949;-70
2022/08/04 13:00:04;;;;;;;;;;;33.00;37.50;;;;;;5015987;28;19964;-71
2022/08/04 13:02:33;;;;;;;;;;;33.10;37.40;;;;;;5021208;28;20674;-70
2022/08/04 13:05:02;;;;;;;;;;;33.10;36.50;;;;;;5035636;28;19932;-70
2022/08/04 13:07:35;;;;;;;;;;;33.20;36.30;;;;;;5019882;28;19926;-71
2022/08/04 13:10:05;;;;;;;;;;;33.20;36.50;;;;;;5035151;28;19929;-71
2022/08/04 13:12:33;;;;;;;;;;;33.30;36.80;;;;;;5038183;28;19929;-71
2022/08/04 13:15:06;;;;;;;;;;;33.40;37.00;;;;;;5024001;28;19953;-70
2022/08/04 13:17:42;;;;;;;;;;;33.40;36.80;;;;;;5021015;28;19925;-71
2022/08/04 13:20:08;;;;;;;;;;;33.50;36.50;;;;;;5023699;28;19925;-71
2022/08/04 13:22:35;;;;;;;;;;;33.60;36.50;;;;;;5032861;28;19932;-74
2022/08/04 13:25:02;;;;;;;;;;;33.60;36.40;;;;;;5036793;28;19944;-71
2022/08/04 13:27:29;;;;;;;;;;;33.70;36.20;;;;;;5041781;28;19925;-71
2022/08/04 13:29:57;;;;;;;;;;;33.70;35.90;;;;;;5019558;28;19933;-70
2022/08/04 13:32:25;;;;;;;;;;;33.90;35.40;;;;;;5016924;28;19929;-71
2022/08/04 13:34:53;;;;;;;;;;;33.90;35.60;;;;;;5021220;28;19940;-71
2022/08/04 13:37:21;;;;;;;;;;;33.90;35.30;;;;;;5026851;28;19932;-71
2022/08/04 13:39:49;;;;;;;;;;;34.00;35.60;;;;;;5025205;28;19925;-71
2022/08/04 13:42:16;;;;;;;;;;;34.10;35.60;;;;;;5023779;28;19932;-70
2022/08/04 13:44:44;;;;;;;;;;;34.10;35.10;;;;;;5020924;28;19936;-70
2022/08/04 13:47:14;;;;;;;;;;;34.20;35.10;;;;;;5032099;28;19944;-72
2022/08/04 13:49:40;;;;;;;;;;;34.20;35.10;;;;;;5032997;28;20353;-70
2022/08/04 13:52:08;;;;;;;;;;;34.30;34.90;;;;;;5019963;28;19929;-70
2022/08/04 13:54:42;;;;;;;;;;;34.40;35.00;;;;;;5024446;28;19929;-71
2022/08/04 13:57:10;;;;;;;;;;;34.40;35.00;;;;;;5036108;28;19926;-70
2022/08/04 13:59:38;;;;;;;;;;;34.50;34.80;;;;;;5020657;28;20100;-70
2022/08/04 14:02:05;;;;;;;;;;;34.50;34.10;;;;;;5017059;28;19929;-71
2022/08/04 14:04:35;;;;;;;;;;;34.60;34.40;;;;;;5038649;28;19929;-71
2022/08/04 14:07:03;;;;;;;;;;;34.70;34.60;;;;;;5018077;28;19930;-71
2022/08/04 14:09:32;;;;;;;;;;;34.70;34.50;;;;;;5025446;28;19928;-71
2022/08/04 14:12:04;;;;;;;;;;;34.80;34.60;;;;;;5035066;28;20409;-72
2022/08/04 14:14:31;;;;;;;;;;;34.90;33.90;;;;;;5033035;28;19929;-72
2022/08/04 14:16:59;;;;;;;;;;;34.90;33.30;;;;;;5017489;28;19929;-71
2022/08/04 14:19:25;;;;;;;;;;;35.00;33.50;;;;;;5022219;28;19975;-70
2022/08/04 14:21:53;;;;;;;;;;;35.10;33.80;;;;;;5038764;28;19936;-70
2022/08/04 14:24:24;;;;;;;;;;;35.20;34.50;;;;;;5039940;28;19925;-71
2022/08/04 14:26:50;;;;;;;;;;;35.20;33.40;;;;;;5033749;28;19933;-70
2022/08/04 14:29:18;;;;;;;;;;;35.30;32.80;;;;;;5026473;28;19929;-71
2022/08/04 14:31:47;;;;;;;;;;;35.30;32.70;;;;;;5017479;28;20286;-71
2022/08/04 14:34:25;;;;;;;;;;;35.40;33.20;;;;;;5019892;28;19925;-74
2022/08/04 14:36:51;;;;;;;;;;;35.50;33.10;;;;;;5018781;28;19925;-71
2022/08/04 14:39:35;;;;;;;;;;;35.50;32.80;;;;;;5028398;28;19925;-70